createdAt,value
2019-01-26T00:01:07.524Z,13.37
2019-01-26T00:03:35.183Z,12.93
2019-01-26T00:06:06.373Z,15.80
2019-01-26T00:08:34.301Z,19.17
2019-01-26T00:11:02.463Z,17.93
2019-01-26T00:13:30.972Z,16.20
2019-01-26T00:15:58.910Z,14.40
2019-01-26T00:18:27.222Z,15.30
2019-01-26T00:20:54.891Z,15.60
2019-01-26T00:23:23.349Z,15.10
2019-01-26T00:25:51.389Z,16.70
2019-01-26T00:28:19.061Z,17.00
2019-01-26T00:30:47.060Z,13.73
2019-01-26T00:33:15.025Z,18.00
2019-01-26T00:35:43.710Z,18.73
2019-01-26T00:38:11.611Z,18.57
2019-01-26T00:40:39.669Z,19.97
2019-01-26T00:43:08.037Z,18.50
2019-01-26T00:45:36.406Z,16.40
2019-01-26T00:48:04.173Z,18.90
2019-01-26T00:50:32.221Z,15.27
2019-01-26T00:53:00.722Z,21.67
2019-01-26T00:55:28.958Z,16.50
2019-01-26T00:57:57.383Z,17.13
2019-01-26T01:00:25.118Z,18.20
2019-01-26T01:02:53.112Z,16.93
2019-01-26T01:05:20.794Z,16.90
2019-01-26T01:07:48.764Z,16.80
2019-01-26T01:10:16.930Z,19.03
2019-01-26T01:12:45.291Z,17.70
2019-01-26T01:15:13.989Z,16.67
2019-01-26T01:17:41.668Z,20.90
2019-01-26T01:20:10.418Z,13.63
2019-01-26T01:22:38.086Z,20.70
2019-01-26T01:25:05.969Z,18.10
2019-01-26T01:27:33.990Z,18.83
2019-01-26T01:30:02.006Z,18.93
2019-01-26T01:32:30.271Z,13.93
2019-01-26T01:34:58.694Z,18.97
2019-01-26T01:37:26.933Z,21.23
2019-01-26T01:39:54.686Z,18.40
2019-01-26T01:42:22.771Z,17.50
2019-01-26T01:44:50.696Z,16.90
2019-01-26T01:47:18.629Z,18.13
2019-01-26T01:49:46.879Z,18.10
2019-01-26T01:52:14.529Z,18.10
2019-01-26T01:54:42.286Z,19.67
2019-01-26T01:57:10.032Z,28.23
2019-01-26T01:59:38.757Z,32.73
2019-01-26T02:02:07.144Z,29.53
2019-01-26T02:04:34.817Z,37.13
2019-01-26T02:07:03.073Z,38.77
2019-01-26T02:09:31.552Z,48.33
2019-01-26T02:11:59.581Z,46.03
2019-01-26T02:14:27.236Z,42.07
2019-01-26T02:16:55.473Z,40.10
2019-01-26T02:19:23.469Z,42.53
2019-01-26T02:21:51.406Z,39.03
2019-01-26T02:24:19.069Z,39.63
2019-01-26T02:26:47.404Z,38.20
2019-01-26T02:29:15.551Z,51.70
2019-01-26T02:31:43.997Z,61.23
2019-01-26T02:34:12.331Z,52.37
2019-01-26T02:36:40.299Z,68.40
2019-01-26T02:39:08.348Z,54.13
2019-01-26T02:41:36.599Z,66.47
2019-01-26T02:44:04.450Z,64.00
2019-01-26T02:46:32.389Z,79.07
2019-01-26T02:49:02.142Z,67.43
2019-01-26T02:51:29.874Z,68.07
2019-01-26T02:53:57.846Z,83.07
2019-01-26T02:56:25.789Z,57.63
2019-01-26T02:58:53.461Z,74.40
2019-01-26T03:01:21.132Z,65.60
2019-01-26T03:03:49.221Z,72.13
2019-01-26T03:06:17.117Z,75.53
2019-01-26T03:08:45.366Z,73.17
2019-01-26T03:11:13.288Z,80.17
2019-01-26T03:13:41.482Z,77.80
2019-01-26T03:16:09.532Z,68.00
2019-01-26T03:18:37.192Z,81.77
2019-01-26T03:21:05.365Z,72.20
2019-01-26T03:23:33.365Z,79.27
2019-01-26T03:26:01.742Z,78.90
2019-01-26T03:28:29.400Z,78.70
2019-01-26T03:30:57.383Z,69.67
2019-01-26T03:33:25.578Z,78.00
2019-01-26T03:35:53.604Z,84.23
2019-01-26T03:38:21.550Z,80.23
2019-01-26T03:40:49.489Z,91.77
2019-01-26T03:43:17.140Z,67.37
2019-01-26T03:45:45.523Z,85.70
2019-01-26T03:48:13.898Z,82.60
2019-01-26T03:50:41.845Z,79.57
2019-01-26T03:53:10.158Z,85.27
2019-01-26T03:55:38.277Z,93.60
2019-01-26T03:58:06.268Z,77.90
2019-01-26T04:00:33.954Z,90.13
2019-01-26T04:03:01.931Z,76.40
2019-01-26T04:05:29.833Z,74.53
2019-01-26T04:07:58.168Z,103.93
2019-01-26T04:10:26.173Z,103.90
2019-01-26T04:12:53.832Z,79.83
2019-01-26T04:15:21.768Z,100.73
2019-01-26T04:20:24.101Z,106.03
2019-01-26T04:22:52.088Z,103.80
2019-01-26T04:25:20.054Z,111.27
2019-01-26T04:27:48.341Z,104.63
2019-01-26T04:30:17.402Z,110.27
2019-01-26T04:32:45.079Z,105.63
2019-01-26T04:35:13.358Z,88.87
2019-01-26T04:37:41.612Z,100.27
2019-01-26T04:40:10.563Z,100.30
2019-01-26T04:42:38.660Z,103.80
2019-01-26T04:45:07.963Z,99.07
2019-01-26T04:47:35.957Z,106.80
2019-01-26T04:50:03.777Z,99.83
2019-01-26T04:52:32.113Z,109.07
2019-01-26T04:55:00.207Z,97.00
2019-01-26T04:57:28.260Z,115.67
2019-01-26T04:59:56.432Z,103.50
2019-01-26T05:02:43.485Z,98.03
2019-01-26T05:05:11.174Z,106.53
2019-01-26T05:07:38.833Z,103.97
2019-01-26T05:10:07.716Z,100.87
2019-01-26T05:12:35.365Z,102.60
2019-01-26T05:15:03.025Z,115.90
2019-01-26T05:17:30.683Z,116.30
2019-01-26T05:19:59.175Z,112.20
2019-01-26T05:22:27.148Z,113.00
2019-01-26T05:24:55.127Z,108.33
2019-01-26T05:27:23.498Z,112.97
2019-01-26T05:29:51.779Z,111.30
2019-01-26T05:32:20.118Z,112.83
2019-01-26T05:34:47.777Z,97.37
2019-01-26T05:37:15.753Z,109.30
2019-01-26T05:40:02.531Z,110.50
2019-01-26T05:42:30.771Z,106.60
2019-01-26T05:44:58.697Z,79.67
2019-01-26T05:47:26.369Z,111.40
2019-01-26T05:49:54.332Z,111.37
2019-01-26T05:52:22.281Z,106.40
2019-01-26T05:54:50.914Z,115.87
2019-01-26T05:57:19.195Z,121.43
2019-01-26T05:59:47.202Z,124.63
2019-01-26T06:02:15.136Z,119.87
2019-01-26T06:04:43.112Z,89.37
2019-01-26T06:07:11.782Z,119.97
2019-01-26T06:12:27.615Z,126.57
2019-01-26T06:14:55.602Z,128.70
2019-01-26T06:17:23.606Z,103.93
2019-01-26T06:19:51.556Z,96.03
2019-01-26T06:24:53.989Z,101.83
2019-01-26T06:27:21.936Z,94.63
2019-01-26T06:29:50.325Z,83.77
2019-01-26T06:32:17.985Z,92.80
2019-01-26T06:35:04.988Z,100.90
2019-01-26T06:37:33.075Z,82.20
2019-01-26T06:40:01.379Z,80.97
2019-01-26T06:42:29.033Z,76.07
2019-01-26T06:44:56.972Z,85.77
2019-01-26T06:47:25.270Z,101.27
2019-01-26T06:49:53.583Z,92.77
2019-01-26T06:52:21.826Z,90.10
2019-01-26T06:54:50.030Z,87.93
2019-01-26T06:57:18.351Z,85.47
2019-01-26T06:59:46.306Z,80.87
2019-01-26T07:02:14.273Z,79.17
2019-01-26T07:05:01.075Z,81.77
2019-01-26T07:07:29.080Z,80.60
2019-01-26T07:09:57.009Z,65.53
2019-01-26T07:12:24.973Z,62.30
2019-01-26T07:14:52.983Z,76.30
2019-01-26T07:20:09.654Z,77.60
2019-01-26T07:22:37.571Z,71.10
2019-01-26T07:25:05.471Z,69.97
2019-01-26T07:27:33.133Z,69.20
2019-01-26T07:30:00.812Z,66.13
2019-01-26T07:32:28.473Z,57.63
2019-01-26T07:34:56.668Z,63.40
2019-01-26T07:37:24.323Z,62.27
2019-01-26T07:39:52.617Z,62.77
2019-01-26T07:42:20.273Z,67.83
2019-01-26T07:44:48.171Z,63.00
2019-01-26T07:47:15.841Z,59.13
2019-01-26T07:49:44.176Z,61.63
2019-01-26T07:52:12.169Z,58.23
2019-01-26T07:54:40.120Z,49.13
2019-01-26T07:57:08.094Z,58.07
2019-01-26T07:59:36.110Z,49.57
2019-01-26T08:02:03.874Z,41.63
2019-01-26T08:04:31.925Z,43.10
2019-01-26T08:06:59.865Z,45.73
2019-01-26T08:09:27.817Z,39.67
2019-01-26T08:11:55.500Z,36.77
2019-01-26T08:14:23.169Z,36.33
2019-01-26T08:16:51.387Z,30.93
2019-01-26T08:19:19.343Z,28.03
2019-01-26T08:21:47.625Z,35.77
2019-01-26T08:24:16.129Z,32.40
2019-01-26T08:26:43.786Z,31.63
2019-01-26T08:29:12.326Z,31.00
2019-01-26T08:31:40.308Z,28.70
2019-01-26T08:34:08.262Z,28.27
2019-01-26T08:36:55.408Z,25.87
2019-01-26T08:39:23.076Z,27.63
2019-01-26T08:41:50.987Z,25.40
2019-01-26T08:44:19.245Z,27.83
2019-01-26T08:47:06.315Z,25.20
2019-01-26T08:49:34.277Z,27.53
2019-01-26T08:52:02.529Z,24.13
2019-01-26T08:54:30.193Z,25.80
2019-01-26T08:56:58.386Z,20.77
2019-01-26T08:59:26.565Z,26.17
2019-01-26T09:07:22.667Z,20.07
2019-01-26T09:09:50.617Z,19.97
2019-01-26T09:14:52.429Z,23.50
2019-01-26T09:17:20.446Z,21.27
2019-01-26T09:19:48.842Z,20.17
2019-01-26T09:22:16.812Z,24.03
2019-01-26T09:27:31.735Z,24.80
2019-01-26T09:29:59.732Z,25.60
2019-01-26T09:32:27.671Z,28.37
2019-01-26T09:34:55.673Z,23.30
2019-01-26T09:37:23.936Z,21.63
2019-01-26T09:39:52.255Z,25.67
2019-01-26T09:55:53.973Z,26.27
2019-01-26T09:58:21.693Z,28.10
2019-01-26T10:00:49.657Z,24.97
2019-01-26T10:03:17.984Z,28.57
2019-01-26T10:05:45.658Z,25.60
2019-01-26T10:08:13.325Z,24.57
2019-01-26T10:10:41.362Z,22.37
2019-01-26T10:13:09.381Z,23.43
2019-01-26T10:15:37.395Z,23.40
2019-01-26T10:18:05.174Z,23.83
2019-01-26T10:20:33.850Z,21.57
2019-01-26T10:23:01.869Z,20.40
2019-01-26T10:25:30.154Z,23.37
2019-01-26T10:27:58.388Z,23.42
2019-01-26T10:30:33.420Z,21.43
2019-01-26T10:33:01.435Z,20.40
2019-01-26T10:35:48.230Z,20.63
2019-01-26T10:38:16.271Z,19.00
2019-01-26T10:41:03.573Z,15.73
2019-01-26T10:43:32.189Z,16.90
2019-01-26T10:46:00.225Z,15.73
2019-01-26T10:48:27.932Z,15.67
2019-01-26T10:50:55.645Z,15.60
2019-01-26T10:53:23.628Z,15.73
2019-01-26T10:55:51.625Z,15.63
2019-01-26T10:58:19.351Z,15.60
2019-01-26T11:00:47.117Z,21.20
2019-01-26T11:03:14.860Z,17.13
2019-01-26T11:05:43.103Z,14.53
2019-01-26T11:08:11.029Z,21.23
2019-01-26T11:10:39.082Z,18.40
2019-01-26T11:13:07.137Z,21.13
2019-01-26T11:15:34.828Z,19.40
2019-01-26T11:18:09.570Z,19.30
2019-01-26T11:20:49.327Z,21.93
2019-01-26T11:23:23.798Z,25.10
2019-01-26T11:26:06.695Z,23.63
2019-01-26T11:28:36.172Z,24.07
2019-01-26T11:31:18.156Z,34.87
2019-01-26T11:34:12.238Z,26.50
2019-01-26T11:36:49.393Z,20.70
2019-01-26T11:39:25.081Z,22.50
2019-01-26T11:42:04.206Z,20.37
2019-01-26T11:44:36.172Z,27.00
2019-01-26T11:47:28.095Z,22.40
2019-01-26T11:50:09.996Z,20.57
2019-01-26T11:52:43.182Z,24.53
2019-01-26T11:55:36.310Z,22.50
2019-01-26T11:58:27.559Z,18.00
2019-01-26T12:01:21.638Z,22.43
2019-01-26T12:04:02.975Z,19.60
2019-01-26T12:06:51.062Z,18.60
2019-01-26T12:09:19.205Z,20.73
2019-01-26T12:11:47.550Z,20.20
2019-01-26T12:14:15.341Z,22.63
2019-01-26T12:16:43.004Z,23.13
2019-01-26T12:19:10.730Z,20.67
2019-01-26T12:21:38.478Z,23.40
2019-01-26T12:24:06.473Z,27.37
2019-01-26T12:26:34.157Z,24.20
2019-01-26T12:29:02.157Z,23.63
2019-01-26T12:31:30.139Z,25.30
2019-01-26T12:33:57.793Z,24.67
2019-01-26T12:36:25.894Z,19.93
2019-01-26T12:38:53.946Z,24.47
2019-01-26T12:41:22.406Z,21.40
2019-01-26T12:43:50.453Z,18.20
2019-01-26T12:46:19.521Z,17.07
2019-01-26T12:48:47.913Z,16.83
2019-01-26T12:51:15.609Z,18.50
2019-01-26T12:53:43.576Z,15.17
2019-01-26T12:56:11.257Z,15.90
2019-01-26T12:58:38.923Z,16.13
2019-01-26T13:01:07.326Z,15.83
2019-01-26T13:03:35.000Z,13.23
2019-01-26T13:06:03.003Z,14.70
2019-01-26T13:08:31.314Z,15.27
2019-01-26T13:11:00.713Z,12.10
2019-01-26T13:13:28.395Z,14.23
2019-01-26T13:15:56.687Z,13.33
2019-01-26T13:18:24.896Z,11.13
2019-01-26T13:20:53.167Z,10.87
2019-01-26T13:23:21.073Z,9.20
2019-01-26T13:25:48.955Z,6.40
2019-01-26T13:28:16.877Z,5.27
2019-01-26T13:30:49.410Z,6.27
2019-01-26T13:33:18.045Z,3.90
2019-01-26T13:35:49.142Z,3.60
2019-01-26T13:38:17.169Z,5.10
2019-01-26T13:40:45.877Z,4.50
2019-01-26T13:43:13.638Z,4.50
2019-01-26T13:45:41.281Z,3.50
2019-01-26T13:48:08.995Z,5.23
2019-01-26T13:50:36.660Z,10.77
2019-01-26T13:53:05.013Z,3.73
2019-01-26T13:55:33.066Z,4.13
2019-01-26T13:58:00.739Z,8.00
2019-01-26T14:00:29.750Z,4.17
2019-01-26T14:02:58.081Z,5.87
2019-01-26T14:05:26.034Z,9.33
2019-01-26T14:07:54.329Z,5.57
2019-01-26T14:10:22.656Z,9.13
2019-01-26T14:12:50.721Z,6.90
2019-01-26T14:15:18.497Z,6.70
2019-01-26T14:17:47.944Z,6.63
2019-01-26T14:20:20.353Z,4.67
2019-01-26T14:22:48.944Z,6.20
2019-01-26T14:25:16.630Z,4.23
2019-01-26T14:27:44.744Z,5.80
2019-01-26T14:30:32.615Z,4.10
2019-01-26T14:33:00.890Z,5.40
2019-01-26T14:35:31.241Z,3.27
2019-01-26T14:37:59.258Z,3.03
2019-01-26T14:40:27.265Z,2.30
2019-01-26T14:42:58.214Z,3.03
2019-01-26T14:45:26.853Z,2.33
2019-01-26T14:47:55.530Z,2.30
2019-01-26T14:50:23.708Z,2.17
2019-01-26T14:52:52.125Z,1.80
2019-01-26T14:55:21.012Z,2.10
2019-01-26T14:57:49.517Z,2.07
2019-01-26T15:00:19.267Z,2.17
2019-01-26T15:02:47.302Z,1.60
2019-01-26T15:05:15.098Z,1.53
2019-01-26T15:07:43.004Z,1.73
2019-01-26T15:10:11.394Z,1.90
2019-01-26T15:12:39.045Z,1.90
2019-01-26T15:15:07.750Z,1.77
2019-01-26T15:17:35.709Z,2.00
2019-01-26T15:20:06.110Z,1.90
2019-01-26T15:22:34.176Z,2.00
2019-01-26T15:25:02.680Z,1.70
2019-01-26T15:27:30.898Z,1.60
2019-01-26T15:29:59.711Z,1.63
2019-01-26T15:32:28.027Z,2.03
2019-01-26T15:34:56.161Z,1.87
2019-01-26T15:37:24.207Z,2.00
2019-01-26T15:39:52.243Z,2.23
2019-01-26T15:42:20.517Z,2.60
2019-01-26T15:44:48.949Z,2.80
2019-01-26T15:47:17.013Z,2.73
2019-01-26T15:49:44.653Z,1.93
2019-01-26T15:52:12.325Z,1.80
2019-01-26T15:54:39.977Z,1.97
2019-01-26T15:57:07.992Z,2.13
2019-01-26T15:59:35.957Z,1.67
2019-01-26T16:02:04.265Z,2.30
2019-01-26T16:04:32.187Z,2.30
2019-01-26T16:07:00.161Z,2.87
2019-01-26T16:09:28.159Z,2.50
2019-01-26T16:11:56.037Z,3.10
2019-01-26T16:14:23.977Z,4.10
2019-01-26T16:16:51.878Z,3.10
2019-01-26T16:19:20.274Z,2.87
2019-01-26T16:21:48.497Z,3.00
2019-01-26T16:24:16.709Z,2.20
2019-01-26T16:26:44.721Z,2.67
2019-01-26T16:29:12.378Z,2.50
2019-01-26T16:31:40.376Z,2.80
2019-01-26T16:34:08.035Z,3.23
2019-01-26T16:36:36.362Z,2.57
2019-01-26T16:39:07.428Z,2.67
2019-01-26T16:41:35.198Z,2.20
2019-01-26T16:44:03.093Z,2.20
2019-01-26T16:46:31.171Z,1.93
2019-01-26T16:48:59.124Z,2.40
2019-01-26T16:51:26.805Z,1.83
2019-01-26T16:53:54.736Z,2.00
2019-01-26T16:56:22.756Z,2.30
2019-01-26T16:58:51.099Z,2.23
2019-01-26T17:01:19.442Z,3.23
2019-01-26T17:03:47.506Z,2.30
2019-01-26T17:06:15.470Z,2.80
2019-01-26T17:08:43.425Z,2.37
2019-01-26T17:11:11.342Z,4.17
2019-01-26T17:13:39.624Z,3.93
2019-01-26T17:16:07.539Z,3.00
2019-01-26T17:18:35.197Z,2.87
2019-01-26T17:21:03.186Z,2.13
2019-01-26T17:23:31.530Z,2.50
2019-01-26T17:25:59.521Z,3.07
2019-01-26T17:28:27.432Z,2.47
2019-01-26T17:30:55.433Z,2.47
2019-01-26T17:33:23.358Z,3.00
2019-01-26T17:35:51.908Z,2.50
2019-01-26T17:38:20.199Z,2.70
2019-01-26T17:40:54.094Z,2.50
2019-01-26T17:43:17.869Z,3.03
2019-01-26T17:45:45.681Z,2.63
2019-01-26T17:48:14.001Z,3.03
2019-01-26T17:50:42.344Z,4.23
2019-01-26T17:53:10.457Z,3.47
2019-01-26T17:55:38.765Z,3.50
2019-01-26T17:58:09.731Z,3.30
2019-01-26T18:00:45.144Z,3.50
2019-01-26T18:03:13.442Z,6.23
2019-01-26T18:05:41.433Z,2.50
2019-01-26T18:08:09.740Z,3.63
2019-01-26T18:10:37.452Z,3.93
2019-01-26T18:13:05.780Z,4.47
2019-01-26T18:15:34.201Z,3.10
2019-01-26T18:18:01.904Z,3.87
2019-01-26T18:20:29.573Z,3.90
2019-01-26T18:22:58.291Z,3.60
2019-01-26T18:25:30.957Z,3.33
2019-01-26T18:27:58.983Z,2.70
2019-01-26T18:30:27.196Z,4.30
2019-01-26T18:32:55.168Z,2.60
2019-01-26T18:35:23.247Z,3.10
2019-01-26T18:37:51.450Z,2.70
2019-01-26T18:40:20.506Z,2.77
2019-01-26T18:42:48.441Z,3.03
2019-01-26T18:45:16.441Z,2.80
2019-01-26T18:47:44.838Z,3.03
2019-01-26T18:50:14.194Z,2.80
2019-01-26T18:52:42.254Z,2.90
2019-01-26T18:55:10.182Z,6.03
2019-01-26T18:57:38.828Z,5.30
2019-01-26T19:00:09.305Z,7.47
2019-01-26T19:02:37.269Z,5.43
2019-01-26T19:05:08.548Z,3.77
2019-01-26T19:07:36.850Z,3.63
2019-01-26T19:10:05.157Z,3.73
2019-01-26T19:12:33.678Z,2.30
2019-01-26T19:15:01.769Z,3.03
2019-01-26T19:17:29.419Z,2.13
2019-01-26T19:19:57.123Z,2.90
2019-01-26T20:13:17.042Z,1.70
2019-01-26T20:15:45.097Z,1.37
2019-01-26T20:18:12.814Z,1.30
2019-01-26T20:20:40.533Z,1.40
2019-01-26T20:23:08.206Z,1.80
2019-01-26T20:25:35.943Z,1.60
2019-01-26T20:28:03.994Z,1.50
2019-01-26T20:30:32.286Z,1.80
2019-01-26T20:32:59.934Z,2.47
2019-01-26T20:35:28.327Z,1.50
2019-01-26T20:37:56.095Z,1.10
2019-01-26T20:40:24.554Z,1.30
2019-01-26T20:42:52.852Z,2.77
2019-01-26T20:45:22.205Z,1.40
2019-01-26T20:47:51.084Z,1.23
2019-01-26T20:50:19.133Z,1.00
2019-01-26T20:52:46.794Z,1.63
2019-01-26T20:55:14.764Z,1.30
2019-01-26T21:00:53.799Z,1.40
2019-01-26T21:03:21.773Z,1.30
2019-01-26T21:05:49.882Z,1.67
2019-01-26T21:08:17.914Z,7.00
2019-01-26T21:10:46.327Z,1.60
2019-01-26T21:13:16.406Z,1.70
2019-01-26T21:15:44.346Z,1.83
2019-01-26T21:18:12.705Z,1.73
2019-01-26T21:20:40.450Z,13.50
2019-01-26T21:23:08.386Z,1.20
2019-01-26T21:25:36.062Z,2.17
2019-01-26T21:28:04.040Z,1.40
2019-01-26T21:30:31.749Z,1.83
2019-01-26T21:32:59.742Z,1.60
2019-01-26T21:35:27.883Z,1.77
2019-01-26T21:37:55.828Z,1.60
2019-01-26T21:40:27.619Z,2.10
2019-01-26T21:42:55.582Z,1.73
2019-01-26T21:45:23.226Z,1.50
2019-01-26T21:47:51.189Z,1.90
2019-01-26T21:50:20.699Z,2.40
2019-01-26T21:52:48.353Z,1.60
2019-01-26T21:55:16.853Z,2.33
2019-01-26T21:57:44.881Z,1.30
2019-01-26T22:00:14.562Z,1.80
2019-01-26T22:02:42.210Z,2.00
2019-01-26T22:05:10.309Z,1.83
2019-01-26T22:07:38.629Z,1.60
2019-01-26T22:10:06.888Z,1.63
2019-01-26T22:12:34.633Z,1.60
2019-01-26T22:15:02.805Z,1.50
2019-01-26T22:17:31.041Z,1.80
2019-01-26T22:19:59.124Z,2.03
2019-01-26T22:22:27.366Z,1.30
2019-01-26T22:24:55.394Z,3.00
2019-01-26T22:27:23.398Z,1.57
2019-01-26T22:29:51.425Z,1.50
2019-01-26T22:32:19.353Z,1.53
2019-01-26T22:34:47.412Z,1.20
2019-01-26T22:37:15.408Z,2.03
2019-01-26T22:39:43.349Z,1.30
2019-01-26T22:42:11.745Z,1.37
2019-01-26T22:44:39.961Z,1.23
2019-01-26T22:47:08.186Z,4.30
2019-01-26T22:49:36.198Z,1.20
2019-01-26T22:52:04.124Z,1.10
2019-01-26T22:54:31.810Z,1.40
2019-01-26T22:57:00.189Z,1.07
2019-01-26T22:59:28.437Z,1.47
2019-01-26T23:01:56.418Z,1.27
2019-01-26T23:04:49.795Z,1.50
2019-01-26T23:07:42.518Z,14.10
2019-01-26T23:10:17.581Z,1.30
2019-01-26T23:12:55.441Z,1.30
2019-01-26T23:15:30.913Z,1.30
2019-01-26T23:18:26.922Z,1.30
2019-01-26T23:21:01.204Z,1.30
2019-01-26T23:23:46.583Z,1.47
2019-01-26T23:26:33.653Z,1.20
2019-01-26T23:29:11.811Z,1.47
2019-01-26T23:31:40.439Z,1.17
2019-01-26T23:34:08.104Z,1.57
2019-01-26T23:36:36.495Z,1.20
2019-01-26T23:39:07.107Z,1.17
2019-01-26T23:41:35.155Z,1.33
2019-01-26T23:44:02.816Z,1.33
2019-01-26T23:46:31.161Z,1.07
2019-01-26T23:48:59.468Z,1.20
2019-01-26T23:51:27.833Z,1.00
2019-01-26T23:53:55.925Z,1.23
2019-01-26T23:56:23.741Z,1.10
2019-01-26T23:58:51.765Z,1.30
